createdAt,value
2023-05-07T00:01:57.242Z,14.58
2023-05-07T00:07:22.546Z,14.59
2023-05-07T00:12:47.429Z,14.57
2023-05-07T00:18:11.652Z,14.52
2023-05-07T00:23:35.504Z,14.59
2023-05-07T00:28:59.937Z,14.46
2023-05-07T00:34:23.968Z,14.44
2023-05-07T00:39:49.337Z,14.49
2023-05-07T00:45:14.954Z,14.63
2023-05-07T00:50:39.125Z,14.67
2023-05-07T00:56:03.859Z,14.58
2023-05-07T01:01:28.354Z,14.35
2023-05-07T01:06:55.812Z,14.44
2023-05-07T01:12:22.028Z,14.39
2023-05-07T01:17:47.097Z,14.36
2023-05-07T01:23:19.579Z,14.39
2023-05-07T01:28:44.055Z,14.35
2023-05-07T01:34:09.822Z,14.44
2023-05-07T01:39:34.889Z,14.50
2023-05-07T01:45:00.201Z,14.55
2023-05-07T01:50:25.248Z,14.66
2023-05-07T01:55:49.500Z,14.74
2023-05-07T02:01:15.204Z,14.69
2023-05-07T02:06:39.846Z,14.68
2023-05-07T02:12:06.682Z,14.78
2023-05-07T02:17:33.200Z,14.81
2023-05-07T02:22:58.581Z,14.89
2023-05-07T02:28:24.035Z,14.43
2023-05-07T02:33:55.221Z,12.22
2023-05-07T02:39:19.563Z,10.66
2023-05-07T02:44:44.192Z,9.77
2023-05-07T02:50:10.677Z,10.25
2023-05-07T02:55:35.339Z,12.31
2023-05-07T03:01:00.556Z,13.24
2023-05-07T03:06:29.817Z,13.65
2023-05-07T03:11:53.911Z,13.93
2023-05-07T03:17:18.360Z,14.17
2023-05-07T03:22:42.827Z,14.25
2023-05-07T03:28:07.745Z,14.26
2023-05-07T03:33:52.221Z,14.17
2023-05-07T03:39:20.380Z,14.22
2023-05-07T03:44:45.411Z,14.14
2023-05-07T03:50:10.702Z,14.07
2023-05-07T03:55:35.718Z,14.09
2023-05-07T04:01:00.523Z,14.20
2023-05-07T04:06:24.682Z,14.24
2023-05-07T04:11:49.136Z,14.21
2023-05-07T04:17:13.954Z,14.21
2023-05-07T04:22:38.387Z,14.17
2023-05-07T04:28:03.596Z,14.03
2023-05-07T04:33:28.748Z,13.83
2023-05-07T04:38:53.816Z,13.74
2023-05-07T04:44:18.214Z,13.81
2023-05-07T04:49:43.119Z,13.90
2023-05-07T04:55:10.084Z,13.72
2023-05-07T05:00:36.940Z,13.64
2023-05-07T05:06:03.075Z,13.67
2023-05-07T05:11:30.389Z,13.65
2023-05-07T05:16:54.849Z,13.63
2023-05-07T05:22:19.136Z,13.71
2023-05-07T05:27:43.540Z,13.77
2023-05-07T05:33:09.000Z,13.95
2023-05-07T05:38:33.880Z,14.09
2023-05-07T05:43:58.763Z,14.01
2023-05-07T05:49:24.329Z,14.05
2023-05-07T05:54:49.123Z,14.11
2023-05-07T06:00:14.984Z,14.27
2023-05-07T06:05:45.279Z,14.31
2023-05-07T06:11:09.923Z,14.34
2023-05-07T06:16:35.316Z,14.39
2023-05-07T06:22:02.780Z,14.58
2023-05-07T06:27:27.338Z,13.97
2023-05-07T06:32:52.471Z,11.88
2023-05-07T06:38:17.623Z,10.73
2023-05-07T06:43:42.699Z,11.65
2023-05-07T06:49:30.628Z,13.63
2023-05-07T06:54:54.845Z,14.27
2023-05-07T07:00:20.814Z,14.54
2023-05-07T07:05:49.032Z,14.11
2023-05-07T07:11:14.394Z,12.31
2023-05-07T07:16:39.538Z,11.13
2023-05-07T07:22:03.450Z,11.47
2023-05-07T07:27:28.061Z,13.43
2023-05-07T07:32:57.166Z,14.59
2023-05-07T07:38:24.505Z,15.05
2023-05-07T07:43:50.164Z,14.63
2023-05-07T07:49:17.132Z,12.85
2023-05-07T07:54:41.967Z,11.68
2023-05-07T08:00:08.533Z,11.30
2023-05-07T08:05:40.673Z,13.34
2023-05-07T08:11:05.780Z,14.70
2023-05-07T08:16:31.246Z,15.24
2023-05-07T08:21:56.927Z,14.80
2023-05-07T08:27:21.483Z,12.97
2023-05-07T08:32:45.757Z,11.91
2023-05-07T08:38:10.738Z,12.31
2023-05-07T08:43:39.280Z,14.31
2023-05-07T08:49:04.255Z,15.39
2023-05-07T08:54:30.622Z,15.19
2023-05-07T08:59:55.851Z,13.22
2023-05-07T09:05:21.616Z,11.85
2023-05-07T09:10:46.021Z,11.79
2023-05-07T09:16:14.965Z,13.84
2023-05-07T09:21:41.253Z,15.11
2023-05-07T09:27:07.290Z,15.80
2023-05-07T09:32:36.209Z,15.74
2023-05-07T09:38:04.450Z,13.95
2023-05-07T09:43:36.835Z,12.69
2023-05-07T09:49:03.854Z,11.87
2023-05-07T09:54:32.040Z,11.55
2023-05-07T09:59:59.597Z,13.32
2023-05-07T10:05:25.950Z,15.04
2023-05-07T10:10:51.220Z,15.63
2023-05-07T10:16:19.755Z,14.91
2023-05-07T10:21:58.367Z,12.98
2023-05-07T10:27:25.066Z,11.78
2023-05-07T10:32:55.382Z,11.21
2023-05-07T10:38:26.636Z,12.05
2023-05-07T10:43:52.192Z,14.27
2023-05-07T10:49:27.617Z,15.31
2023-05-07T10:55:21.375Z,14.66
2023-05-07T11:01:14.171Z,13.09
2023-05-07T11:06:39.497Z,12.36
2023-05-07T11:12:06.824Z,11.92
2023-05-07T11:18:01.221Z,11.91
2023-05-07T11:23:35.666Z,13.98
2023-05-07T11:29:23.481Z,14.52
2023-05-07T11:34:56.994Z,14.56
2023-05-07T11:40:22.688Z,13.35
2023-05-07T11:45:49.364Z,12.49
2023-05-07T11:51:14.591Z,11.98
2023-05-07T11:56:41.184Z,11.67
2023-05-07T12:02:06.036Z,13.23
2023-05-07T12:07:31.253Z,14.70
2023-05-07T12:12:56.850Z,14.62
2023-05-07T12:18:21.559Z,13.07
2023-05-07T12:23:46.936Z,12.17
2023-05-07T12:29:11.668Z,11.72
2023-05-07T12:34:35.682Z,12.51
2023-05-07T12:40:12.618Z,14.57
2023-05-07T12:45:40.998Z,15.63
2023-05-07T12:51:07.604Z,15.67
2023-05-07T12:56:37.971Z,14.15
2023-05-07T13:02:02.777Z,12.97
2023-05-07T13:07:30.687Z,12.11
2023-05-07T13:12:57.784Z,11.62
2023-05-07T13:18:22.918Z,12.25
2023-05-07T13:23:47.587Z,14.11
2023-05-07T13:29:11.784Z,15.04
2023-05-07T13:34:36.433Z,14.63
2023-05-07T13:40:02.916Z,13.31
2023-05-07T13:45:32.785Z,12.54
2023-05-07T13:50:58.403Z,12.15
2023-05-07T13:56:22.705Z,11.94
2023-05-07T14:01:47.144Z,12.76
2023-05-07T14:07:11.530Z,14.87
2023-05-07T14:12:36.700Z,15.79
2023-05-07T14:18:02.186Z,15.61
2023-05-07T14:23:28.195Z,14.00
2023-05-07T14:28:52.128Z,12.82
2023-05-07T14:34:16.595Z,11.88
2023-05-07T14:39:41.066Z,11.28
2023-05-07T14:45:06.887Z,11.00
2023-05-07T14:50:31.401Z,11.81
2023-05-07T14:55:56.754Z,14.16
2023-05-07T15:01:22.825Z,15.37
2023-05-07T15:06:47.871Z,15.26
2023-05-07T15:12:13.015Z,13.68
2023-05-07T15:17:37.357Z,12.52
2023-05-07T15:23:03.785Z,11.78
2023-05-07T15:28:29.647Z,11.42
2023-05-07T15:33:55.645Z,13.01
2023-05-07T15:39:20.625Z,14.71
2023-05-07T15:44:47.793Z,15.30
2023-05-07T15:50:16.236Z,14.92
2023-05-07T15:55:45.556Z,13.40
2023-05-07T16:01:11.680Z,12.34
2023-05-07T16:06:37.138Z,11.68
2023-05-07T16:12:02.379Z,11.24
2023-05-07T16:17:27.187Z,11.90
2023-05-07T16:22:55.519Z,14.01
2023-05-07T16:28:21.893Z,14.63
2023-05-07T16:33:57.160Z,14.36
2023-05-07T16:39:22.843Z,12.90
2023-05-07T16:44:49.058Z,11.89
2023-05-07T16:50:13.632Z,11.16
2023-05-07T16:55:41.187Z,11.73
2023-05-07T17:01:11.902Z,13.70
2023-05-07T17:06:37.454Z,14.66
2023-05-07T17:12:03.171Z,14.43
2023-05-07T17:17:30.946Z,12.60
2023-05-07T17:22:58.900Z,11.41
2023-05-07T17:28:24.379Z,10.68
2023-05-07T17:33:48.827Z,10.22
2023-05-07T17:39:13.737Z,10.93
2023-05-07T17:44:38.179Z,13.17
2023-05-07T17:50:03.300Z,14.34
2023-05-07T17:55:29.724Z,14.99
2023-05-07T18:00:55.936Z,14.61
2023-05-07T18:06:23.042Z,12.77
2023-05-07T18:11:48.201Z,11.54
2023-05-07T18:17:12.739Z,10.78
2023-05-07T18:22:39.582Z,10.24
2023-05-07T18:28:03.732Z,9.86
2023-05-07T18:33:28.045Z,9.63
2023-05-07T18:38:53.964Z,10.50
2023-05-07T18:44:18.934Z,12.81
2023-05-07T18:50:15.792Z,13.92
2023-05-07T18:56:13.355Z,14.65
2023-05-07T19:01:38.131Z,14.37
2023-05-07T19:07:02.475Z,12.50
2023-05-07T19:12:27.113Z,11.27
2023-05-07T19:17:52.182Z,10.47
2023-05-07T19:23:17.170Z,9.93
2023-05-07T19:28:45.472Z,10.58
2023-05-07T19:34:10.380Z,12.85
2023-05-07T19:39:35.472Z,13.86
2023-05-07T19:45:00.404Z,13.68
2023-05-07T19:50:26.237Z,11.98
2023-05-07T19:55:53.258Z,10.84
2023-05-07T20:01:22.115Z,10.09
2023-05-07T20:06:47.251Z,9.60
2023-05-07T20:12:13.724Z,9.30
2023-05-07T20:17:38.532Z,9.51
2023-05-07T20:23:03.308Z,11.98
2023-05-07T20:28:27.779Z,13.42
2023-05-07T20:33:51.895Z,14.02
2023-05-07T20:39:16.550Z,12.66
2023-05-07T20:44:40.739Z,11.17
2023-05-07T20:50:05.146Z,10.26
2023-05-07T20:55:30.719Z,9.69
2023-05-07T21:00:56.107Z,10.42
2023-05-07T21:06:21.084Z,12.63
2023-05-07T21:11:45.516Z,13.69
2023-05-07T21:17:10.490Z,14.26
2023-05-07T21:22:35.984Z,13.00
2023-05-07T21:28:00.382Z,11.31
2023-05-07T21:33:24.462Z,10.30
2023-05-07T21:38:48.364Z,9.60
2023-05-07T21:44:12.313Z,10.20
2023-05-07T21:49:37.446Z,12.24
2023-05-07T21:55:02.717Z,12.05
2023-05-07T22:00:27.480Z,10.63
2023-05-07T22:05:51.749Z,9.76
2023-05-07T22:11:15.844Z,9.24
2023-05-07T22:16:40.402Z,9.95
2023-05-07T22:22:04.780Z,12.14
2023-05-07T22:27:31.622Z,13.12
2023-05-07T22:32:56.419Z,11.99
2023-05-07T22:38:20.641Z,10.50
2023-05-07T22:43:44.765Z,9.56
2023-05-07T22:49:09.067Z,8.86
2023-05-07T22:54:33.766Z,8.45
2023-05-07T22:59:58.547Z,10.15
2023-05-07T23:05:23.795Z,11.91
2023-05-07T23:10:48.833Z,12.79
2023-05-07T23:16:12.969Z,13.23
2023-05-07T23:21:37.333Z,12.77
2023-05-07T23:27:04.964Z,10.82
2023-05-07T23:32:31.371Z,9.44
2023-05-07T23:37:56.484Z,8.54
2023-05-07T23:43:21.524Z,7.93
2023-05-07T23:48:45.448Z,7.44
2023-05-07T23:54:09.613Z,7.10
2023-05-07T23:59:34.922Z,7.97
